La Palma > ESTACION METEOROLÓGICA Los Cancajos

DATOS ACTUALES Online

Ultima actulizacion 26 minutos

20.5 ºC

Temperatura

74

Humedad (%)

1016.2

Presión (mb)

0

Precipitación (mm)

6.4 N

Viento (Km/h)

DATOS DIARIOS

Temperatura últimas 24 horas (ºC)

Humedad últimas 24 horas (%)

Presión atmosférica últimas 24 horas (mb)

Precipitaciones últimas 23 horas (mm)

Viento últimas 24 horas (Km/h)

Hora Temperatura (°C) ºC Precipitación (mm) mm Presión (mb) mb Humedad (%) % Viento (Km/h) km/h
29 - 00:00 17.7 0 1017 72 4.8 SSW
29 - 01:00 17.7 0 1017 73 9.7 SSW
29 - 02:00 18.8 0 1017 72 6.4 SW
29 - 03:00 17.7 0 1016 76 6.4 SSW
29 - 04:00 17.7 0 1016 76 9.7 SSW
29 - 05:00 17.7 0 1016 76 9.7 SW
29 - 06:00 18.4 0 1016 73 9.7 SW
29 - 07:00 17.7 0 1017 72 3.2 E
29 - 08:00 19.6 0 1017 69 1.6 SE
29 - 09:00 20.5 0 1017 66 3.2 NE
29 - 10:00 21.1 0 1017 67 1.6 ENE
29 - 11:00 21.2 0 1017 67 6.4 NE
29 - 12:00 21.1 0 1017 71 12.9 NE
29 - 13:00 21.7 0 1017 69 6.4 NE
29 - 14:00 22.3 0 1016 62 3.2 E
29 - 15:00 21.4 0 1016 69 8 NE
29 - 16:00 21.3 0 1016 74 9.7 ENE
29 - 17:00 21.7 0 1016 69 3.2 E
29 - 18:00 21.8 0 1016 68 4.8 SSE
29 - 19:00 21.5 0 1016 69 1.6 SE
29 - 20:00 21.2 0 1016 70 3.2 S
29 - 21:00 21.1 0 1016 72 3.2 S
29 - 22:00 20.8 0 1016 72 0 SSW
29 - 23:00 20.5 0 1016 74 6.4 N
30 - 00:00
Apalmet utiliza cookies propias y de terceros para mejorar la usabilidad y la experiencia web. Política de cookies.